Time;durP1;ratioP1;P1;durP2;ratioP2;P2;SDS_P1;SDS_P2;PMS_P1;PMS_P2;Temp;Humidity;BMP_temperature;BMP_pressure;BME280_temperature;BME280_humidity;BME280_pressure;Samples;Min_cycle;Max_cycle;Signal;HPM_P1;HPM_P2
2021/12/01 00:00:19;;;;;;;41.08;19.85;;;;;;;;;;5030517;28;21071;-56
2021/12/01 00:02:45;;;;;;;13.73;7.75;;;;;;;;;;5028115;28;20453;-58
2021/12/01 00:05:12;;;;;;;20.88;10.57;;;;;;;;;;5030585;28;20098;-56
2021/12/01 00:07:38;;;;;;;17.92;9.93;;;;;;;;;;5030277;28;20029;-58
2021/12/01 00:10:05;;;;;;;40.38;20.95;;;;;;;;;;5024811;28;20398;-53
2021/12/01 00:12:31;;;;;;;37.35;18.73;;;;;;;;;;5029992;28;20099;-52
2021/12/01 00:14:58;;;;;;;35.28;18.52;;;;;;;;;;5028330;28;20164;-57
2021/12/01 00:17:25;;;;;;;61.75;30.85;;;;;;;;;;5029803;28;20084;-53
2021/12/01 00:19:51;;;;;;;30.60;16.50;;;;;;;;;;5030248;28;20022;-59
2021/12/01 00:22:17;;;;;;;32.40;17.48;;;;;;;;;;5027521;28;20017;-58
2021/12/01 00:24:43;;;;;;;23.92;13.18;;;;;;;;;;5046140;28;20032;-60
2021/12/01 00:27:09;;;;;;;32.00;16.13;;;;;;;;;;5053602;28;20358;-59
2021/12/01 00:29:35;;;;;;;54.08;27.55;;;;;;;;;;5053509;28;20027;-58
2021/12/01 00:32:01;;;;;;;27.58;13.45;;;;;;;;;;5053436;28;20025;-54
2021/12/01 00:34:30;;;;;;;35.00;18.77;;;;;;;;;;5053565;28;20466;-60
2021/12/01 00:36:56;;;;;;;25.38;13.02;;;;;;;;;;5053516;28;20021;-58
2021/12/01 00:39:22;;;;;;;13.40;6.78;;;;;;;;;;5053356;28;20072;-58
2021/12/01 00:41:50;;;;;;;18.23;9.25;;;;;;;;;;5053318;28;20052;-55
2021/12/01 00:44:16;;;;;;;16.95;10.02;;;;;;;;;;5052015;28;20388;-59
2021/12/01 00:49:33;;;;;;;9.32;5.32;;;;;;;;;;5011657;28;20130;-58
2021/12/01 00:51:59;;;;;;;22.20;10.90;;;;;;;;;;5011876;28;20038;-50
2021/12/01 00:54:25;;;;;;;23.90;11.20;;;;;;;;;;5011601;28;20536;-59
2021/12/01 00:56:51;;;;;;;21.67;9.88;;;;;;;;;;4995078;28;20029;-56
2021/12/01 00:59:17;;;;;;;15.40;8.30;;;;;;;;;;5011587;28;20065;-55
2021/12/01 01:01:44;;;;;;;20.98;9.45;;;;;;;;;;4995051;28;20030;-58
2021/12/01 01:04:10;;;;;;;16.63;7.80;;;;;;;;;;5011479;28;20610;-58
2021/12/01 01:06:37;;;;;;;20.10;10.88;;;;;;;;;;5011449;28;20045;-57
2021/12/01 01:09:05;;;;;;;17.27;9.52;;;;;;;;;;5011576;28;20413;-61
2021/12/01 01:17:01;;;;;;;8.88;5.28;;;;;;;;;;5011533;28;20052;-60
2021/12/01 01:19:27;;;;;;;16.50;8.07;;;;;;;;;;5011427;28;20084;-60
2021/12/01 01:21:55;;;;;;;12.55;7.38;;;;;;;;;;5011453;28;20030;-57
2021/12/01 01:24:21;;;;;;;23.88;10.60;;;;;;;;;;5011213;28;20091;-57
2021/12/01 01:26:48;;;;;;;20.20;9.30;;;;;;;;;;5037184;28;20040;-60
2021/12/01 01:29:14;;;;;;;24.00;10.57;;;;;;;;;;5052959;28;20473;-60
2021/12/01 01:31:40;;;;;;;17.90;7.97;;;;;;;;;;5053309;28;20484;-58
2021/12/01 01:34:06;;;;;;;26.75;13.32;;;;;;;;;;5053087;28;20031;-59
2021/12/01 01:36:33;;;;;;;13.52;6.97;;;;;;;;;;5053014;28;20040;-60
2021/12/01 01:38:59;;;;;;;22.95;11.73;;;;;;;;;;5052700;28;20033;-59
2021/12/01 01:41:25;;;;;;;13.38;7.15;;;;;;;;;;5052777;28;20021;-56
2021/12/01 01:43:52;;;;;;;14.38;7.35;;;;;;;;;;5051440;28;20029;-57
2021/12/01 01:46:18;;;;;;;15.70;7.57;;;;;;;;;;5051376;28;20442;-60
2021/12/01 01:48:47;;;;;;;16.40;8.55;;;;;;;;;;5052857;28;20071;-59
2021/12/01 01:51:15;;;;;;;16.88;9.35;;;;;;;;;;5053010;28;20017;-60
2021/12/01 01:53:41;;;;;;;12.43;6.55;;;;;;;;;;5053170;28;20025;-60
2021/12/01 01:56:07;;;;;;;9.38;5.13;;;;;;;;;;5052212;28;20520;-60
2021/12/01 01:58:34;;;;;;;9.27;5.55;;;;;;;;;;5052905;28;20040;-59
2021/12/01 02:01:07;;;;;;;10.50;5.57;;;;;;;;;;5052834;28;20021;-58
2021/12/01 02:03:35;;;;;;;15.82;7.93;;;;;;;;;;5052754;28;20059;-59
2021/12/01 02:06:01;;;;;;;10.00;5.15;;;;;;;;;;5052754;28;20104;-59
2021/12/01 02:08:31;;;;;;;14.05;6.68;;;;;;;;;;5052555;28;20032;-59
2021/12/01 02:11:02;;;;;;;16.02;8.85;;;;;;;;;;5052784;28;20017;-59
2021/12/01 02:13:28;;;;;;;14.02;7.53;;;;;;;;;;5052573;28;20025;-59
2021/12/01 02:15:58;;;;;;;18.90;7.47;;;;;;;;;;5052560;28;20067;-60
2021/12/01 02:18:24;;;;;;;11.75;5.30;;;;;;;;;;5055784;28;20032;-60
2021/12/01 02:21:04;;;;;;;16.80;7.95;;;;;;;;;;5056209;28;20096;-60
2021/12/01 02:23:31;;;;;;;17.45;7.40;;;;;;;;;;5055867;28;20040;-61
2021/12/01 02:25:57;;;;;;;12.60;5.60;;;;;;;;;;5055014;28;20021;-60
2021/12/01 02:28:23;;;;;;;20.08;6.47;;;;;;;;;;5055989;28;20100;-60
2021/12/01 02:30:49;;;;;;;15.32;7.80;;;;;;;;;;5055953;28;20070;-61
2021/12/01 02:33:16;;;;;;;15.05;7.30;;;;;;;;;;5054556;28;20363;-61
2021/12/01 02:35:42;;;;;;;15.65;5.93;;;;;;;;;;5055612;28;20028;-61
2021/12/01 02:38:08;;;;;;;13.38;6.45;;;;;;;;;;5055673;28;20037;-61
2021/12/01 02:40:34;;;;;;;13.48;6.60;;;;;;;;;;5055768;28;20024;-60
2021/12/01 02:43:00;;;;;;;11.75;6.40;;;;;;;;;;5055897;28;20033;-61
2021/12/01 02:45:26;;;;;;;11.88;6.35;;;;;;;;;;5055653;28;20087;-59
2021/12/01 02:47:52;;;;;;;8.65;4.53;;;;;;;;;;5055590;28;20029;-59
2021/12/01 02:50:19;;;;;;;15.65;8.68;;;;;;;;;;5055560;28;20059;-59
2021/12/01 02:52:46;;;;;;;14.10;5.78;;;;;;;;;;5055560;28;20021;-58
2021/12/01 02:55:15;;;;;;;15.73;5.30;;;;;;;;;;5055336;28;20061;-60
2021/12/01 02:57:46;;;;;;;12.40;5.47;;;;;;;;;;5055486;28;20056;-60
2021/12/01 03:00:13;;;;;;;10.52;4.80;;;;;;;;;;5055360;28;20396;-60
2021/12/01 03:02:39;;;;;;;10.32;5.28;;;;;;;;;;5055445;28;20038;-60
2021/12/01 03:05:06;;;;;;;8.75;4.22;;;;;;;;;;5055157;28;20029;-58
2021/12/01 03:07:33;;;;;;;7.40;4.32;;;;;;;;;;5055165;28;20033;-60
2021/12/01 03:09:59;;;;;;;7.03;4.03;;;;;;;;;;5055107;28;20064;-59
2021/12/01 03:12:29;;;;;;;8.68;4.45;;;;;;;;;;5055122;28;20025;-57
2021/12/01 03:14:55;;;;;;;10.77;4.97;;;;;;;;;;5054925;28;20045;-57
2021/12/01 03:17:21;;;;;;;8.25;4.13;;;;;;;;;;5055016;28;20542;-54
2021/12/01 03:19:47;;;;;;;7.68;4.57;;;;;;;;;;5054854;28;20041;-58
2021/12/01 03:22:14;;;;;;;14.88;5.90;;;;;;;;;;5055098;28;20032;-59
2021/12/01 03:24:40;;;;;;;10.20;4.82;;;;;;;;;;5054739;28;20465;-59
2021/12/01 03:27:09;;;;;;;10.98;4.15;;;;;;;;;;5054887;28;20029;-59
2021/12/01 03:29:35;;;;;;;16.58;5.40;;;;;;;;;;5053759;28;20405;-59
2021/12/01 03:32:01;;;;;;;12.80;5.68;;;;;;;;;;5054908;28;20053;-58
2021/12/01 03:34:27;;;;;;;11.55;5.40;;;;;;;;;;5054656;28;20021;-56
2021/12/01 03:36:53;;;;;;;8.70;4.93;;;;;;;;;;5054560;28;20028;-59
2021/12/01 03:39:19;;;;;;;11.98;5.68;;;;;;;;;;5054470;28;20083;-60
2021/12/01 03:41:46;;;;;;;12.50;6.85;;;;;;;;;;5054522;28;20029;-58
2021/12/01 03:44:12;;;;;;;14.77;6.30;;;;;;;;;;5054676;28;20111;-55
2021/12/01 03:46:38;;;;;;;9.05;4.22;;;;;;;;;;5054404;28;20025;-58
2021/12/01 03:49:04;;;;;;;13.13;5.32;;;;;;;;;;5054416;28;20029;-56
2021/12/01 03:51:30;;;;;;;8.63;4.78;;;;;;;;;;5054160;28;20146;-57
2021/12/01 03:53:56;;;;;;;6.85;3.80;;;;;;;;;;5054300;28;20033;-56
2021/12/01 03:56:22;;;;;;;7.25;4.40;;;;;;;;;;5054456;28;20033;-59
2021/12/01 03:58:49;;;;;;;5.47;2.90;;;;;;;;;;5054263;28;20044;-59
2021/12/01 04:01:17;;;;;;;5.88;3.40;;;;;;;;;;5054220;28;20025;-59
2021/12/01 04:03:43;;;;;;;8.80;5.43;;;;;;;;;;5054135;28;20024;-59
2021/12/01 04:06:10;;;;;;;11.05;5.93;;;;;;;;;;5054282;28;20100;-61
2021/12/01 04:08:36;;;;;;;10.18;5.53;;;;;;;;;;5054103;28;20029;-61
2021/12/01 04:11:02;;;;;;;6.57;3.60;;;;;;;;;;5053944;28;20499;-61
2021/12/01 04:13:28;;;;;;;6.88;4.20;;;;;;;;;;5053662;28;20025;-60
2021/12/01 04:15:54;;;;;;;6.28;3.60;;;;;;;;;;5052223;28;20102;-62
2021/12/01 04:18:22;;;;;;;7.43;3.47;;;;;;;;;;5053655;28;20032;-57
2021/12/01 04:20:49;;;;;;;7.10;3.78;;;;;;;;;;5053658;28;20021;-57
2021/12/01 04:23:15;;;;;;;12.38;4.85;;;;;;;;;;5054075;28;20020;-61
2021/12/01 04:25:41;;;;;;;7.90;4.32;;;;;;;;;;5053672;28;20029;-60
2021/12/01 04:28:07;;;;;;;7.43;3.70;;;;;;;;;;5053611;28;20039;-56
2021/12/01 04:30:33;;;;;;;6.93;4.40;;;;;;;;;;5053617;28;20433;-58
2021/12/01 04:33:00;;;;;;;8.10;4.10;;;;;;;;;;5053627;28;20025;-57
2021/12/01 04:35:27;;;;;;;10.77;5.15;;;;;;;;;;5053628;28;20104;-57
2021/12/01 04:37:53;;;;;;;8.98;4.60;;;;;;;;;;5053802;28;20104;-59
2021/12/01 04:40:20;;;;;;;7.13;4.50;;;;;;;;;;5051955;28;20025;-59
2021/12/01 04:42:46;;;;;;;18.80;7.32;;;;;;;;;;5053460;28;20017;-59
2021/12/01 04:45:17;;;;;;;11.90;4.45;;;;;;;;;;5052059;28;20067;-58
2021/12/01 04:48:01;;;;;;;16.48;8.13;;;;;;;;;;5053432;28;20086;-59
2021/12/01 04:50:28;;;;;;;20.98;12.45;;;;;;;;;;5053456;28;20086;-59
2021/12/01 04:52:56;;;;;;;26.73;14.57;;;;;;;;;;5053144;28;20017;-57
2021/12/01 04:55:23;;;;;;;32.70;17.17;;;;;;;;;;5053200;28;20028;-60
2021/12/01 04:57:49;;;;;;;34.42;17.17;;;;;;;;;;5053163;28;20032;-62
2021/12/01 05:00:18;;;;;;;26.73;13.85;;;;;;;;;;5053094;28;20082;-61
2021/12/01 05:02:44;;;;;;;18.77;10.90;;;;;;;;;;5052953;28;20021;-60
2021/12/01 05:05:10;;;;;;;17.55;9.90;;;;;;;;;;5053055;28;20031;-59
2021/12/01 05:07:36;;;;;;;15.88;8.25;;;;;;;;;;5052961;28;20024;-60
2021/12/01 05:10:03;;;;;;;14.45;8.23;;;;;;;;;;5053174;28;20025;-60
2021/12/01 05:12:29;;;;;;;13.93;5.65;;;;;;;;;;5053113;28;20035;-60
2021/12/01 05:14:56;;;;;;;21.35;10.32;;;;;;;;;;5052814;28;20053;-60
2021/12/01 05:17:22;;;;;;;16.52;7.45;;;;;;;;;;5053022;28;20052;-57
2021/12/01 05:19:48;;;;;;;17.52;8.73;;;;;;;;;;5051676;28;20025;-59
2021/12/01 05:22:15;;;;;;;15.20;8.05;;;;;;;;;;5053067;28;20071;-56
2021/12/01 05:24:41;;;;;;;14.98;8.05;;;;;;;;;;5052923;28;20839;-59
2021/12/01 05:27:07;;;;;;;17.10;6.75;;;;;;;;;;5053068;28;20025;-59
2021/12/01 05:29:33;;;;;;;18.88;7.20;;;;;;;;;;5052965;28;20107;-56
2021/12/01 05:32:00;;;;;;;14.10;7.38;;;;;;;;;;5053011;28;20216;-51
2021/12/01 05:34:26;;;;;;;14.57;8.00;;;;;;;;;;5052806;28;20401;-62
2021/12/01 05:36:53;;;;;;;12.02;6.55;;;;;;;;;;5052975;28;20017;-59
2021/12/01 05:39:19;;;;;;;17.65;7.75;;;;;;;;;;5052901;28;20044;-60
2021/12/01 05:41:46;;;;;;;11.20;5.43;;;;;;;;;;5053062;28;20507;-60
2021/12/01 05:44:12;;;;;;;14.10;7.18;;;;;;;;;;5052592;28;20033;-60
2021/12/01 05:46:38;;;;;;;15.00;6.55;;;;;;;;;;5052875;28;20079;-61
2021/12/01 05:49:04;;;;;;;16.75;7.72;;;;;;;;;;5052600;28;20035;-61
2021/12/01 05:51:30;;;;;;;12.68;6.75;;;;;;;;;;5053542;28;20017;-59
2021/12/01 05:53:59;;;;;;;12.27;6.28;;;;;;;;;;5056726;28;20029;-58
2021/12/01 05:56:25;;;;;;;14.35;6.28;;;;;;;;;;5056470;28;20021;-58
2021/12/01 05:58:51;;;;;;;12.95;5.43;;;;;;;;;;5038569;28;20044;-55
2021/12/01 06:01:17;;;;;;;18.88;9.10;;;;;;;;;;5056431;28;20420;-60
2021/12/01 06:03:43;;;;;;;16.92;8.90;;;;;;;;;;5056379;28;20108;-58
2021/12/01 06:06:09;;;;;;;27.85;13.80;;;;;;;;;;5038056;28;20088;-59
2021/12/01 06:08:35;;;;;;;18.25;8.60;;;;;;;;;;5036428;28;20060;-59
2021/12/01 06:11:01;;;;;;;28.20;13.43;;;;;;;;;;5036198;28;20026;-60
2021/12/01 06:13:28;;;;;;;22.63;10.13;;;;;;;;;;5036298;28;20037;-59
2021/12/01 06:15:54;;;;;;;27.27;14.20;;;;;;;;;;5036322;28;20120;-57
2021/12/01 06:18:20;;;;;;;24.10;13.23;;;;;;;;;;5036111;28;20022;-57
2021/12/01 06:20:46;;;;;;;23.35;12.30;;;;;;;;;;5036324;28;20029;-58
2021/12/01 06:23:13;;;;;;;15.27;7.38;;;;;;;;;;5036128;28;20032;-55
2021/12/01 06:25:39;;;;;;;24.50;10.63;;;;;;;;;;5036125;28;20029;-56
2021/12/01 06:28:05;;;;;;;20.05;9.30;;;;;;;;;;5036363;28;20030;-56
2021/12/01 06:30:33;;;;;;;11.73;5.95;;;;;;;;;;5036289;28;20466;-56
2021/12/01 06:32:59;;;;;;;8.32;5.05;;;;;;;;;;5035958;28;20033;-56
2021/12/01 06:35:26;;;;;;;9.93;5.50;;;;;;;;;;5035992;28;20523;-50
2021/12/01 06:37:54;;;;;;;8.63;5.25;;;;;;;;;;5035785;28;20489;-58
2021/12/01 06:40:21;;;;;;;13.43;6.65;;;;;;;;;;5035870;28;20022;-60
2021/12/01 06:42:47;;;;;;;14.43;6.18;;;;;;;;;;5035920;28;20443;-57
2021/12/01 06:45:13;;;;;;;13.63;6.35;;;;;;;;;;5035712;28;20041;-57
2021/12/01 06:47:40;;;;;;;12.90;6.00;;;;;;;;;;5035865;28;20026;-60
2021/12/01 06:50:07;;;;;;;16.15;8.43;;;;;;;;;;5035528;28;20104;-59
2021/12/01 06:52:33;;;;;;;12.60;7.05;;;;;;;;;;5035719;28;20059;-58
2021/12/01 06:55:00;;;;;;;16.70;8.88;;;;;;;;;;5035694;28;20377;-59
2021/12/01 06:57:27;;;;;;;16.15;8.15;;;;;;;;;;5035542;28;20029;-59
2021/12/01 06:59:53;;;;;;;14.68;7.25;;;;;;;;;;5035774;28;20041;-55
2021/12/01 07:02:19;;;;;;;19.48;8.07;;;;;;;;;;5035346;28;20454;-59
2021/12/01 07:04:46;;;;;;;23.75;10.63;;;;;;;;;;5035287;28;20480;-59
2021/12/01 07:07:12;;;;;;;20.23;9.13;;;;;;;;;;5035476;28;20017;-59
2021/12/01 07:09:39;;;;;;;13.07;6.22;;;;;;;;;;5035413;28;20025;-57
2021/12/01 07:12:05;;;;;;;13.35;6.57;;;;;;;;;;5035407;28;20029;-60
2021/12/01 07:14:31;;;;;;;19.45;7.90;;;;;;;;;;5035170;28;20049;-55
2021/12/01 07:17:00;;;;;;;15.63;8.02;;;;;;;;;;5035090;28;20025;-60
2021/12/01 07:19:26;;;;;;;14.05;8.38;;;;;;;;;;5033530;28;20045;-58
2021/12/01 07:21:52;;;;;;;23.35;11.75;;;;;;;;;;5035095;28;20022;-59
2021/12/01 07:24:20;;;;;;;27.55;15.02;;;;;;;;;;5033743;28;20026;-59
2021/12/01 07:26:46;;;;;;;32.03;17.17;;;;;;;;;;5034808;28;20024;-58
2021/12/01 07:29:12;;;;;;;22.88;11.52;;;;;;;;;;5033778;28;20133;-57
2021/12/01 07:31:39;;;;;;;22.15;11.93;;;;;;;;;;5034862;28;20442;-59
2021/12/01 07:34:05;;;;;;;32.05;15.85;;;;;;;;;;5034778;28;20481;-59
2021/12/01 07:36:31;;;;;;;51.83;25.42;;;;;;;;;;5034976;28;20068;-56
2021/12/01 07:38:59;;;;;;;45.22;22.20;;;;;;;;;;5035165;28;20468;-60
2021/12/01 07:41:25;;;;;;;38.13;17.20;;;;;;;;;;5034691;28;20383;-58
2021/12/01 07:43:52;;;;;;;44.63;22.63;;;;;;;;;;5034768;28;20026;-58
2021/12/01 07:46:20;;;;;;;57.97;25.42;;;;;;;;;;5034571;28;20394;-59
2021/12/01 07:48:46;;;;;;;60.08;28.75;;;;;;;;;;5034553;28;20021;-54
2021/12/01 07:51:12;;;;;;;69.43;30.23;;;;;;;;;;5034391;28;20029;-53
2021/12/01 07:53:39;;;;;;;38.33;19.50;;;;;;;;;;5034435;28;20116;-53
2021/12/01 07:56:05;;;;;;;30.63;15.00;;;;;;;;;;5034327;28;20037;-53
2021/12/01 07:58:31;;;;;;;16.75;7.57;;;;;;;;;;5034392;28;20038;-59
2021/12/01 08:01:00;;;;;;;16.48;9.25;;;;;;;;;;5034366;28;20074;-55
2021/12/01 08:03:26;;;;;;;17.75;7.70;;;;;;;;;;5034262;28;20048;-54
2021/12/01 08:05:52;;;;;;;19.20;8.25;;;;;;;;;;5034287;28;20049;-57
2021/12/01 08:08:19;;;;;;;18.20;9.93;;;;;;;;;;5034436;28;20021;-55
2021/12/01 08:10:47;;;;;;;23.88;12.23;;;;;;;;;;5034186;28;20032;-56
2021/12/01 08:13:16;;;;;;;28.23;14.45;;;;;;;;;;5033975;28;20056;-54
2021/12/01 08:15:44;;;;;;;41.05;17.92;;;;;;;;;;5033416;28;20525;-53
2021/12/01 08:18:12;;;;;;;39.55;16.70;;;;;;;;;;5033840;28;20433;-53
2021/12/01 08:20:39;;;;;;;45.65;19.15;;;;;;;;;;5034224;28;20109;-54
2021/12/01 08:23:05;;;;;;;38.03;17.65;;;;;;;;;;5034195;28;20025;-48
2021/12/01 08:25:33;;;;;;;49.67;22.13;;;;;;;;;;5033737;28;20022;-54
2021/12/01 08:28:01;;;;;;;42.92;20.42;;;;;;;;;;5034072;28;20071;-53
2021/12/01 08:30:28;;;;;;;36.83;15.93;;;;;;;;;;5033761;28;20465;-54
2021/12/01 08:32:54;;;;;;;45.10;20.25;;;;;;;;;;5033649;28;20087;-53
2021/12/01 08:35:20;;;;;;;45.83;20.52;;;;;;;;;;5033781;28;20026;-54
2021/12/01 08:37:46;;;;;;;35.60;14.35;;;;;;;;;;5033886;28;20108;-54
2021/12/01 08:40:15;;;;;;;39.47;18.02;;;;;;;;;;5033782;28;20044;-54
2021/12/01 08:42:44;;;;;;;58.40;23.40;;;;;;;;;;5033729;28;20021;-53
2021/12/01 08:45:11;;;;;;;45.60;23.30;;;;;;;;;;5033654;28;20044;-52
2021/12/01 08:47:37;;;;;;;39.25;20.80;;;;;;;;;;5033552;28;20025;-53
2021/12/01 08:50:05;;;;;;;54.30;24.10;;;;;;;;;;5033642;28;20087;-53
2021/12/01 08:52:32;;;;;;;35.60;17.80;;;;;;;;;;5033566;28;20056;-53
2021/12/01 08:54:58;;;;;;;31.45;16.00;;;;;;;;;;5033420;28;20024;-49
2021/12/01 08:57:24;;;;;;;37.10;17.48;;;;;;;;;;5033434;28;20030;-53
2021/12/01 08:59:53;;;;;;;26.58;12.48;;;;;;;;;;5033345;28;20065;-54
2021/12/01 09:02:19;;;;;;;14.73;7.95;;;;;;;;;;5033216;28;20060;-49
2021/12/01 09:04:49;;;;;;;25.33;11.95;;;;;;;;;;5033350;28;20021;-54
2021/12/01 09:07:16;;;;;;;17.42;8.73;;;;;;;;;;5033671;28;20025;-51
2021/12/01 09:09:42;;;;;;;19.13;8.80;;;;;;;;;;5033220;28;20465;-53
2021/12/01 09:12:08;;;;;;;19.77;9.35;;;;;;;;;;5033219;28;20030;-49
2021/12/01 09:14:35;;;;;;;23.02;10.60;;;;;;;;;;5031638;28;20099;-42
2021/12/01 09:17:03;;;;;;;30.35;13.98;;;;;;;;;;5033321;28;20036;-40
2021/12/01 09:19:29;;;;;;;12.15;6.90;;;;;;;;;;5033275;28;20026;-40
2021/12/01 09:21:55;;;;;;;19.92;9.15;;;;;;;;;;5033318;28;20056;-41
2021/12/01 09:24:22;;;;;;;14.32;7.25;;;;;;;;;;5033388;28;20412;-41
2021/12/01 09:26:48;;;;;;;23.27;12.02;;;;;;;;;;5034506;28;20049;-41
2021/12/01 09:29:14;;;;;;;23.52;10.02;;;;;;;;;;5037336;28;20061;-41
2021/12/01 09:31:41;;;;;;;32.70;15.70;;;;;;;;;;5037122;28;20097;-41
2021/12/01 09:34:07;;;;;;;22.27;10.77;;;;;;;;;;5037143;28;20030;-38
2021/12/01 09:36:33;;;;;;;33.10;15.23;;;;;;;;;;5035748;28;20392;-40
2021/12/01 09:38:59;;;;;;;12.65;7.05;;;;;;;;;;5037048;28;20104;-42
2021/12/01 09:41:29;;;;;;;14.90;6.32;;;;;;;;;;5037253;28;20025;-41
2021/12/01 09:43:55;;;;;;;17.10;7.13;;;;;;;;;;5035747;28;20057;-41
2021/12/01 09:46:23;;;;;;;36.35;17.38;;;;;;;;;;5036804;28;20033;-43
2021/12/01 09:48:49;;;;;;;24.15;10.43;;;;;;;;;;5036804;28;20026;-42
2021/12/01 09:51:17;;;;;;;22.08;9.35;;;;;;;;;;5036668;28;20484;-42
2021/12/01 09:53:43;;;;;;;29.08;11.95;;;;;;;;;;5036714;28;20482;-42
2021/12/01 09:56:12;;;;;;;25.50;11.10;;;;;;;;;;5036599;28;20041;-41
2021/12/01 09:58:39;;;;;;;17.48;7.75;;;;;;;;;;5036656;28;20048;-42
2021/12/01 10:01:09;;;;;;;16.75;7.22;;;;;;;;;;5036722;28;20033;-40
2021/12/01 10:03:36;;;;;;;14.15;6.38;;;;;;;;;;5037207;28;20026;-42
2021/12/01 10:06:02;;;;;;;12.73;6.30;;;;;;;;;;5035204;28;20032;-39
2021/12/01 10:08:36;;;;;;;15.95;7.57;;;;;;;;;;5036402;28;20084;-41
2021/12/01 10:11:07;;;;;;;19.95;10.05;;;;;;;;;;5035265;28;20049;-41
2021/12/01 10:13:37;;;;;;;14.00;6.88;;;;;;;;;;5036739;28;20025;-42
2021/12/01 10:16:05;;;;;;;17.60;4.65;;;;;;;;;;5036345;28;20072;-39
2021/12/01 10:18:35;;;;;;;11.48;5.85;;;;;;;;;;5036371;28;20021;-41
2021/12/01 10:21:09;;;;;;;16.00;7.15;;;;;;;;;;5036236;28;20112;-42
2021/12/01 10:23:36;;;;;;;29.02;10.45;;;;;;;;;;5034814;28;20041;-42
2021/12/01 10:26:36;;;;;;;29.63;12.20;;;;;;;;;;5034911;28;20021;-40
2021/12/01 10:29:06;;;;;;;20.95;10.52;;;;;;;;;;4959126;28;20039;-43
2021/12/01 10:31:34;;;;;;;25.23;10.05;;;;;;;;;;4975353;28;20038;-39
2021/12/01 10:34:40;;;;;;;25.77;11.85;;;;;;;;;;4975358;28;20039;-39
2021/12/01 10:37:38;;;;;;;19.20;9.98;;;;;;;;;;4898399;29;20033;-41
2021/12/01 10:40:04;;;;;;;24.83;9.23;;;;;;;;;;4898467;29;20045;-40
2021/12/01 10:42:30;;;;;;;20.83;8.18;;;;;;;;;;4898753;29;20051;-39
2021/12/01 10:44:58;;;;;;;46.83;22.50;;;;;;;;;;4898334;29;20077;-42
2021/12/01 10:47:27;;;;;;;59.95;28.40;;;;;;;;;;4898509;29;20037;-43
2021/12/01 10:49:59;;;;;;;52.60;22.85;;;;;;;;;;4898555;29;20125;-42
2021/12/01 10:52:33;;;;;;;43.00;19.30;;;;;;;;;;4898690;29;20040;-42
2021/12/01 10:55:18;;;;;;;44.05;20.92;;;;;;;;;;4898656;29;20045;-41
2021/12/01 10:57:48;;;;;;;32.45;15.60;;;;;;;;;;4898312;29;20197;-41
2021/12/01 11:00:24;;;;;;;22.60;11.52;;;;;;;;;;4898121;29;20044;-40
2021/12/01 11:02:54;;;;;;;32.30;14.88;;;;;;;;;;4898196;29;20029;-44
2021/12/01 11:05:31;;;;;;;28.50;11.50;;;;;;;;;;4925388;28;20496;-41
2021/12/01 11:07:57;;;;;;;30.17;14.88;;;;;;;;;;5005358;28;20481;-41
2021/12/01 11:10:25;;;;;;;18.15;8.30;;;;;;;;;;5035166;28;20140;-43
2021/12/01 11:13:01;;;;;;;27.83;11.45;;;;;;;;;;5035567;28;20026;-44
2021/12/01 11:15:31;;;;;;;18.92;8.73;;;;;;;;;;5035051;28;20053;-42
2021/12/01 11:17:59;;;;;;;25.80;12.55;;;;;;;;;;5035331;28;20139;-42
2021/12/01 11:20:31;;;;;;;13.45;6.90;;;;;;;;;;5035083;28;20390;-41
2021/12/01 11:23:07;;;;;;;13.77;6.20;;;;;;;;;;5035340;28;20056;-43
2021/12/01 11:25:36;;;;;;;14.52;7.07;;;;;;;;;;5033659;28;20022;-43
2021/12/01 11:28:02;;;;;;;21.52;6.68;;;;;;;;;;5035241;28;20034;-43
2021/12/01 11:30:28;;;;;;;12.10;6.45;;;;;;;;;;5034869;28;20462;-40
2021/12/01 11:32:55;;;;;;;14.63;6.20;;;;;;;;;;5033498;28;20069;-41
2021/12/01 11:35:21;;;;;;;18.65;6.28;;;;;;;;;;5034929;28;20029;-41
2021/12/01 11:37:55;;;;;;;18.05;6.85;;;;;;;;;;5034767;28;20032;-39
2021/12/01 11:40:21;;;;;;;16.70;7.10;;;;;;;;;;5034671;28;20497;-44
2021/12/01 11:42:50;;;;;;;17.38;7.05;;;;;;;;;;5034884;28;20029;-41
2021/12/01 11:45:16;;;;;;;17.15;7.10;;;;;;;;;;5034689;28;20413;-40
2021/12/01 11:47:47;;;;;;;13.93;5.55;;;;;;;;;;5034957;28;20079;-40
2021/12/01 11:50:18;;;;;;;16.55;6.25;;;;;;;;;;5033587;28;20489;-40
2021/12/01 11:52:55;;;;;;;14.75;6.35;;;;;;;;;;5034903;28;20060;-40
2021/12/01 11:55:41;;;;;;;18.77;6.00;;;;;;;;;;5034632;28;20033;-39
2021/12/01 11:58:09;;;;;;;22.98;6.30;;;;;;;;;;5024218;28;20038;-42
2021/12/01 12:00:45;;;;;;;18.10;6.95;;;;;;;;;;5034819;28;20108;-40
2021/12/01 12:03:28;;;;;;;18.58;6.18;;;;;;;;;;5034292;28;20039;-40
2021/12/01 12:06:33;;;;;;;15.52;6.50;;;;;;;;;;5034699;28;20175;-38
2021/12/01 12:09:09;;;;;;;14.63;6.25;;;;;;;;;;4973531;28;20134;-39
2021/12/01 12:11:41;;;;;;;9.63;4.72;;;;;;;;;;4957033;28;20042;-40
2021/12/01 12:14:08;;;;;;;12.25;5.20;;;;;;;;;;4973231;28;20050;-40
2021/12/01 12:16:35;;;;;;;15.40;5.68;;;;;;;;;;4973340;28;20735;-40
2021/12/01 12:19:01;;;;;;;14.27;4.60;;;;;;;;;;4973307;28;20106;-38
2021/12/01 12:24:05;;;;;;;13.32;5.93;;;;;;;;;;4973112;28;20402;-41
2021/12/01 12:26:43;;;;;;;10.15;4.93;;;;;;;;;;4973107;28;20038;-43
2021/12/01 12:29:15;;;;;;;12.63;5.32;;;;;;;;;;4973131;28;20026;-39
2021/12/01 12:31:42;;;;;;;13.18;6.38;;;;;;;;;;4956981;28;20018;-42
2021/12/01 12:34:13;;;;;;;12.65;5.95;;;;;;;;;;4973000;28;20395;-40
2021/12/01 12:36:39;;;;;;;;;;;;;;;;;;4973563;28;20463;-39
2021/12/01 12:39:16;;;;;;;12.18;5.03;;;;;;;;;;4987419;28;19948;-40
2021/12/01 12:41:54;;;;;;;11.90;5.30;;;;;;;;;;5033633;28;20040;-42
2021/12/01 12:44:27;;;;;;;11.75;4.70;;;;;;;;;;5032257;28;20489;-39
2021/12/01 12:47:08;;;;;;;15.18;4.18;;;;;;;;;;5033654;28;20056;-41
2021/12/01 12:49:37;;;;;;;12.10;4.55;;;;;;;;;;5032334;28;20022;-38
2021/12/01 12:52:22;;;;;;;8.38;4.28;;;;;;;;;;5033522;28;20045;-41
2021/12/01 12:54:48;;;;;;;8.57;4.07;;;;;;;;;;5032281;28;20032;-39
2021/12/01 12:57:16;;;;;;;7.22;3.75;;;;;;;;;;5033357;28;20029;-41
2021/12/01 12:59:42;;;;;;;15.18;5.63;;;;;;;;;;5033384;28;20030;-40
2021/12/01 13:02:09;;;;;;;19.52;6.45;;;;;;;;;;5033191;28;20032;-39
2021/12/01 13:04:47;;;;;;;15.23;5.32;;;;;;;;;;5033405;28;20052;-39
2021/12/01 13:07:35;;;;;;;16.40;6.22;;;;;;;;;;5033447;28;20036;-39
2021/12/01 13:10:10;;;;;;;11.25;5.13;;;;;;;;;;5033272;28;20469;-41
2021/12/01 13:12:45;;;;;;;12.27;6.05;;;;;;;;;;5033459;28;20057;-41
2021/12/01 13:15:22;;;;;;;13.80;6.18;;;;;;;;;;5033195;28;20127;-44
2021/12/01 13:17:51;;;;;;;12.75;6.07;;;;;;;;;;5033239;28;20105;-40
2021/12/01 13:20:20;;;;;;;14.48;6.63;;;;;;;;;;5033154;28;20032;-39
2021/12/01 13:23:06;;;;;;;12.35;6.45;;;;;;;;;;5033083;28;20024;-39
2021/12/01 13:25:32;;;;;;;14.65;6.28;;;;;;;;;;5033115;28;20474;-43
2021/12/01 13:28:02;;;;;;;14.63;7.10;;;;;;;;;;5032270;28;20505;-42
2021/12/01 13:30:29;;;;;;;42.72;21.30;;;;;;;;;;5032523;28;20029;-39
2021/12/01 13:33:10;;;;;;;45.10;24.13;;;;;;;;;;5032599;28;20421;-39
2021/12/01 13:35:36;;;;;;;28.92;15.13;;;;;;;;;;5032614;28;20452;-43
2021/12/01 13:38:02;;;;;;;25.42;13.13;;;;;;;;;;5032488;28;20017;-42
2021/12/01 13:40:29;;;;;;;27.05;13.52;;;;;;;;;;5032493;28;20033;-43
2021/12/01 13:42:55;;;;;;;17.83;9.38;;;;;;;;;;5029939;28;20044;-43
2021/12/01 13:45:24;;;;;;;25.85;12.02;;;;;;;;;;5032370;28;20021;-43
2021/12/01 13:47:51;;;;;;;26.40;13.10;;;;;;;;;;5032959;28;20101;-43
2021/12/01 13:50:17;;;;;;;59.30;25.55;;;;;;;;;;5032318;28;20017;-42
2021/12/01 13:52:49;;;;;;;22.23;11.43;;;;;;;;;;5032505;28;20486;-43
2021/12/01 13:55:16;;;;;;;46.85;21.27;;;;;;;;;;5032362;28;20048;-40
2021/12/01 13:57:46;;;;;;;33.85;18.73;;;;;;;;;;5032329;28;20020;-42
2021/12/01 14:00:13;;;;;;;34.92;19.90;;;;;;;;;;5032343;28;20026;-41
2021/12/01 14:02:41;;;;;;;42.17;22.13;;;;;;;;;;5032202;28;20022;-41
2021/12/01 14:05:08;;;;;;;15.45;8.50;;;;;;;;;;5032480;28;20030;-38
2021/12/01 14:07:46;;;;;;;22.70;10.02;;;;;;;;;;5032355;28;20028;-39
2021/12/01 14:10:12;;;;;;;26.52;12.80;;;;;;;;;;5031442;28;20025;-38
2021/12/01 14:12:54;;;;;;;20.15;9.82;;;;;;;;;;5032945;28;20018;-38
2021/12/01 14:15:20;;;;;;;24.45;12.35;;;;;;;;;;5035608;28;20092;-38
2021/12/01 14:17:47;;;;;;;38.85;18.10;;;;;;;;;;5035965;28;20025;-38
2021/12/01 14:20:14;;;;;;;46.45;22.85;;;;;;;;;;5035794;28;20037;-38
2021/12/01 14:22:43;;;;;;;37.55;19.63;;;;;;;;;;5035633;28;20375;-38
2021/12/01 14:25:12;;;;;;;58.00;26.75;;;;;;;;;;5033294;28;20033;-38
2021/12/01 14:27:38;;;;;;;29.67;15.13;;;;;;;;;;5035250;28;20096;-40
2021/12/01 14:30:12;;;;;;;23.35;12.60;;;;;;;;;;5035606;28;20382;-38
2021/12/01 14:32:41;;;;;;;46.50;20.15;;;;;;;;;;5033519;28;20013;-38
2021/12/01 14:35:08;;;;;;;34.72;15.65;;;;;;;;;;5035616;28;20021;-38
2021/12/01 14:37:35;;;;;;;40.42;19.30;;;;;;;;;;5035434;28;20057;-38
2021/12/01 14:40:08;;;;;;;50.78;22.70;;;;;;;;;;5035382;28;20095;-38
2021/12/01 14:42:39;;;;;;;38.42;17.17;;;;;;;;;;5035253;28;20029;-39